createdAt,value
2019-05-29T00:02:26.039Z,96393.27
2019-05-29T00:04:57.099Z,96395.13
2019-05-29T00:07:28.209Z,96396.03
2019-05-29T00:09:59.345Z,96393.27
2019-05-29T00:12:30.325Z,96399.42
2019-05-29T00:15:01.332Z,96393.15
2019-05-29T00:17:32.452Z,96399.88
2019-05-29T00:20:03.605Z,96399.09
2019-05-29T00:22:34.602Z,96409.05
2019-05-29T00:25:06.391Z,96402.81
2019-05-29T00:27:37.405Z,96401.09
2019-05-29T00:30:09.035Z,96410.67
2019-05-29T00:32:40.075Z,96409.86
2019-05-29T00:35:12.255Z,96408.67
2019-05-29T00:37:43.419Z,96409.23
2019-05-29T00:40:15.467Z,96408.72
2019-05-29T00:42:46.502Z,96410.79
2019-05-29T00:45:19.605Z,96411.52
2019-05-29T00:47:50.630Z,96415.84
2019-05-29T00:50:21.918Z,96420.55
2019-05-29T00:52:53.523Z,96418.14
2019-05-29T00:55:24.513Z,96418.23
2019-05-29T00:57:55.610Z,96421.23
2019-05-29T01:00:26.622Z,96427.63
2019-05-29T01:02:57.719Z,96432.51
2019-05-29T01:05:29.762Z,96433.60
2019-05-29T01:08:00.774Z,96433.55
2019-05-29T01:10:32.085Z,96441.36
2019-05-29T01:13:03.115Z,96441.81
2019-05-29T01:15:34.139Z,96443.21
2019-05-29T01:18:05.267Z,96446.69
2019-05-29T01:20:37.266Z,96449.34
2019-05-29T01:23:08.279Z,96451.06
2019-05-29T01:25:39.305Z,96456.87
2019-05-29T01:28:10.359Z,96453.67
2019-05-29T01:30:41.379Z,96455.95
2019-05-29T01:33:16.825Z,96458.64
2019-05-29T01:35:45.229Z,96454.63
2019-05-29T01:38:17.174Z,96454.80
2019-05-29T01:40:48.628Z,96457.05
2019-05-29T01:43:19.644Z,96453.61
2019-05-29T01:45:50.643Z,96457.41
2019-05-29T01:48:22.162Z,96460.55
2019-05-29T01:50:53.177Z,96466.08
2019-05-29T01:53:24.318Z,96463.66
2019-05-29T01:55:55.547Z,96463.20
2019-05-29T01:58:26.556Z,96462.61
2019-05-29T02:00:57.555Z,96465.56
2019-05-29T02:03:28.565Z,96471.95
2019-05-29T02:05:59.582Z,96478.33
2019-05-29T02:08:30.603Z,96477.51
2019-05-29T02:11:02.146Z,96484.48
2019-05-29T02:13:33.162Z,96480.05
2019-05-29T02:16:04.411Z,96479.31
2019-05-29T02:18:35.413Z,96486.88
2019-05-29T02:21:06.482Z,96494.77
2019-05-29T02:23:37.493Z,96490.85
2019-05-29T02:26:08.589Z,96495.02
2019-05-29T02:28:39.620Z,96495.91
2019-05-29T02:31:10.617Z,96492.54
2019-05-29T02:33:41.636Z,96497.46
2019-05-29T02:36:12.677Z,96495.80
2019-05-29T02:38:43.694Z,96496.37
2019-05-29T02:41:14.690Z,96497.46
2019-05-29T02:43:45.705Z,96507.81
2019-05-29T02:46:16.708Z,96504.66
2019-05-29T02:48:48.776Z,96512.94
2019-05-29T02:51:20.024Z,96510.41
2019-05-29T02:53:51.124Z,96514.88
2019-05-29T02:56:24.731Z,96517.30
2019-05-29T02:58:56.119Z,96513.89
2019-05-29T03:01:27.804Z,96517.80
2019-05-29T03:03:59.365Z,96534.11
2019-05-29T03:06:32.180Z,96533.94
2019-05-29T03:09:06.444Z,96524.07
2019-05-29T03:11:37.518Z,96531.30
2019-05-29T03:14:08.601Z,96532.17
2019-05-29T03:16:39.594Z,96541.53
2019-05-29T03:19:10.662Z,96539.83
2019-05-29T03:21:41.653Z,96543.95
2019-05-29T03:24:12.659Z,96547.11
2019-05-29T03:26:43.762Z,96549.30
2019-05-29T03:29:14.768Z,96553.82
2019-05-29T03:31:48.133Z,96564.94
2019-05-29T03:34:18.776Z,96563.89
2019-05-29T03:36:49.968Z,96563.30
2019-05-29T03:39:20.986Z,96567.20
2019-05-29T03:41:52.015Z,96575.95
2019-05-29T03:44:23.665Z,96572.16
2019-05-29T03:46:55.652Z,96581.70
2019-05-29T03:49:26.895Z,96589.80
2019-05-29T03:51:57.998Z,96587.31
2019-05-29T03:54:30.605Z,96591.16
2019-05-29T03:57:01.867Z,96590.77
2019-05-29T03:59:33.022Z,96599.30
2019-05-29T04:02:05.808Z,96603.05
2019-05-29T04:04:38.205Z,96604.53
2019-05-29T04:07:09.421Z,96609.21
2019-05-29T04:09:40.544Z,96612.90
2019-05-29T04:12:11.716Z,96615.00
2019-05-29T04:14:43.410Z,96616.20
2019-05-29T04:17:15.463Z,96623.91
2019-05-29T04:19:46.839Z,96627.72
2019-05-29T04:22:24.281Z,96634.61
2019-05-29T04:24:57.185Z,96632.13
2019-05-29T04:27:31.952Z,96640.59
2019-05-29T04:30:05.018Z,96640.59
2019-05-29T04:32:36.713Z,96650.62
2019-05-29T04:35:08.324Z,96645.88
2019-05-29T04:37:40.076Z,96648.20
2019-05-29T04:40:12.173Z,96645.56
2019-05-29T04:42:43.166Z,96651.31
2019-05-29T04:45:14.511Z,96652.80
2019-05-29T04:47:45.529Z,96660.78
2019-05-29T04:50:16.980Z,96659.09
2019-05-29T04:52:49.016Z,96667.80
2019-05-29T04:55:20.103Z,96677.56
2019-05-29T04:57:51.222Z,96670.27
2019-05-29T05:00:22.242Z,96677.50
2019-05-29T05:02:53.382Z,96688.02
2019-05-29T05:05:24.827Z,96689.97
2019-05-29T05:07:55.927Z,96688.14
2019-05-29T05:10:38.035Z,96689.24
2019-05-29T05:13:09.573Z,96695.63
2019-05-29T05:15:40.778Z,96699.97
2019-05-29T05:18:11.992Z,96700.61
2019-05-29T05:20:42.998Z,96702.27
2019-05-29T05:23:14.166Z,96701.20
2019-05-29T05:25:45.190Z,96709.98
2019-05-29T05:28:16.380Z,96710.36
2019-05-29T05:30:47.390Z,96713.89
2019-05-29T05:33:19.155Z,96718.01
2019-05-29T05:35:50.166Z,96720.50
2019-05-29T05:38:21.176Z,96719.91
2019-05-29T05:40:52.347Z,96723.65
2019-05-29T05:43:24.623Z,96725.92
2019-05-29T05:45:55.737Z,96725.98
2019-05-29T05:48:26.792Z,96735.36
2019-05-29T05:50:57.839Z,96725.85
2019-05-29T05:53:28.894Z,96737.38
2019-05-29T05:55:59.915Z,96738.55
2019-05-29T05:58:31.640Z,96747.27
2019-05-29T06:01:02.646Z,96746.73
2019-05-29T06:03:34.016Z,96751.80
2019-05-29T06:06:05.176Z,96752.24
2019-05-29T06:08:36.236Z,96755.64
2019-05-29T06:11:08.541Z,96754.61
2019-05-29T06:13:40.493Z,96752.84
2019-05-29T06:16:12.454Z,96753.84
2019-05-29T06:18:43.588Z,96757.88
2019-05-29T06:21:14.975Z,96759.86
2019-05-29T06:23:46.069Z,96764.21
2019-05-29T06:26:17.127Z,96767.67
2019-05-29T06:28:49.612Z,96766.26
2019-05-29T06:31:20.648Z,96770.45
2019-05-29T06:33:51.681Z,96779.11
2019-05-29T06:36:23.311Z,96779.17
2019-05-29T06:38:54.362Z,96777.03
2019-05-29T06:41:25.919Z,96783.48
2019-05-29T06:43:57.031Z,96785.25
2019-05-29T06:46:28.142Z,96789.75
2019-05-29T06:49:00.867Z,96793.63
2019-05-29T06:51:32.235Z,96795.67
2019-05-29T06:54:03.376Z,96801.50
2019-05-29T06:56:35.466Z,96803.17
2019-05-29T06:59:06.868Z,96801.69
2019-05-29T07:01:39.295Z,96805.15
2019-05-29T07:04:12.488Z,96811.78
2019-05-29T07:06:43.450Z,96812.52
2019-05-29T07:09:14.452Z,96811.27
2019-05-29T07:11:47.444Z,96819.14
2019-05-29T07:14:19.595Z,96821.85
2019-05-29T07:16:56.077Z,96821.19
2019-05-29T07:19:29.402Z,96826.27
2019-05-29T07:21:56.213Z,96826.55
2019-05-29T07:24:27.499Z,96834.14
2019-05-29T07:26:58.586Z,96834.86
2019-05-29T07:29:29.615Z,96835.55
2019-05-29T07:32:00.708Z,96842.83
2019-05-29T07:34:49.391Z,96838.04
2019-05-29T07:37:04.578Z,96840.91
2019-05-29T07:39:35.743Z,96843.95
2019-05-29T07:42:07.034Z,96846.75
2019-05-29T07:44:38.091Z,96852.50
2019-05-29T07:47:10.062Z,96853.77
2019-05-29T07:49:44.664Z,96854.77
2019-05-29T07:52:14.141Z,96851.50
2019-05-29T07:54:45.785Z,96861.98
2019-05-29T07:57:16.986Z,96862.05
2019-05-29T07:59:48.867Z,96865.25
2019-05-29T08:02:20.133Z,96870.61
2019-05-29T08:04:51.261Z,96868.52
2019-05-29T08:07:22.529Z,96879.48
2019-05-29T08:09:53.579Z,96870.93
2019-05-29T08:12:24.809Z,96881.08
2019-05-29T08:14:55.937Z,96879.16
2019-05-29T08:17:27.476Z,96882.63
2019-05-29T08:20:06.477Z,96885.28
2019-05-29T08:22:34.428Z,96891.08
2019-05-29T08:25:04.737Z,96882.20
2019-05-29T08:27:35.787Z,96890.45
2019-05-29T08:30:08.290Z,96890.41
2019-05-29T08:32:40.697Z,96895.72
2019-05-29T08:35:13.194Z,96897.48
2019-05-29T08:37:44.980Z,96896.00
2019-05-29T08:40:17.083Z,96900.01
2019-05-29T08:42:49.327Z,96899.63
2019-05-29T08:45:20.547Z,96906.47
2019-05-29T08:47:51.979Z,96910.28
2019-05-29T08:50:23.362Z,96910.12
2019-05-29T08:52:54.484Z,96911.16
2019-05-29T08:55:25.654Z,96915.98
2019-05-29T08:57:57.004Z,96917.59
2019-05-29T09:00:28.303Z,96921.02
2019-05-29T09:02:59.509Z,96916.64
2019-05-29T09:05:30.550Z,96921.17
2019-05-29T09:08:01.674Z,96917.70
2019-05-29T09:10:32.761Z,96921.52
2019-05-29T09:13:05.268Z,96922.05
2019-05-29T09:15:36.502Z,96928.36
2019-05-29T09:18:07.710Z,96926.75
2019-05-29T09:21:00.970Z,96933.50
2019-05-29T09:23:12.742Z,96940.06
2019-05-29T09:25:43.862Z,96935.86
2019-05-29T09:28:18.366Z,96938.34
2019-05-29T09:30:49.911Z,96936.52
2019-05-29T09:33:21.866Z,96948.69
2019-05-29T09:35:53.775Z,96943.93
2019-05-29T09:38:25.121Z,96944.75
2019-05-29T09:40:56.241Z,96948.76
2019-05-29T09:43:30.655Z,96942.89
2019-05-29T09:46:02.303Z,96946.11
2019-05-29T09:48:48.514Z,96951.36
2019-05-29T09:51:20.527Z,96956.86
2019-05-29T09:53:38.489Z,96957.73
2019-05-29T09:56:09.641Z,96950.62
2019-05-29T09:58:40.664Z,96953.05
2019-05-29T10:01:22.772Z,96953.15
2019-05-29T10:03:44.732Z,96954.39
2019-05-29T10:06:15.875Z,96957.88
2019-05-29T10:08:46.873Z,96960.66
2019-05-29T10:11:17.995Z,96965.16
2019-05-29T10:13:50.170Z,96960.72
2019-05-29T10:16:21.253Z,96964.48
2019-05-29T10:18:54.453Z,96969.66
2019-05-29T10:21:39.185Z,96966.73
2019-05-29T10:23:59.600Z,96969.38
2019-05-29T10:26:30.943Z,96971.55
2019-05-29T10:29:08.212Z,96976.80
2019-05-29T10:31:34.681Z,96982.41
2019-05-29T10:34:05.822Z,96974.97
2019-05-29T10:36:36.838Z,96977.33
2019-05-29T10:39:12.779Z,96979.52
2019-05-29T10:41:42.644Z,96982.69
2019-05-29T10:44:13.723Z,96982.00
2019-05-29T10:46:49.461Z,96982.92
2019-05-29T10:49:20.338Z,96978.53
2019-05-29T10:52:06.251Z,96987.10
2019-05-29T10:54:24.042Z,96987.52
2019-05-29T10:56:55.224Z,96989.70
2019-05-29T10:59:26.275Z,96988.89
2019-05-29T11:01:57.378Z,96997.58
2019-05-29T11:04:28.369Z,97001.61
2019-05-29T11:06:59.452Z,97003.49
2019-05-29T11:09:43.437Z,96997.27
2019-05-29T11:12:03.284Z,96994.15
2019-05-29T11:14:34.278Z,96997.16
2019-05-29T11:17:05.401Z,96990.98
2019-05-29T11:19:36.479Z,96994.19
2019-05-29T11:22:25.343Z,96993.41
2019-05-29T11:24:40.188Z,96984.66
2019-05-29T11:27:11.343Z,96981.83
2019-05-29T11:29:42.334Z,96987.31
2019-05-29T11:32:13.350Z,96988.52
2019-05-29T11:34:44.448Z,96999.23
2019-05-29T11:37:15.615Z,97000.66
2019-05-29T11:39:46.796Z,97005.00
2019-05-29T11:42:27.550Z,97003.54
2019-05-29T11:44:50.885Z,97002.52
2019-05-29T11:47:22.065Z,97006.69
2019-05-29T11:49:53.265Z,97009.53
2019-05-29T11:52:26.536Z,97006.28
2019-05-29T11:54:59.999Z,97012.82
2019-05-29T11:57:30.673Z,97008.61
2019-05-29T12:00:16.489Z,97006.97
2019-05-29T12:02:34.420Z,97010.82
2019-05-29T12:05:07.219Z,97015.27
2019-05-29T12:07:38.395Z,97019.19
2019-05-29T12:10:10.543Z,97017.19
2019-05-29T12:12:41.705Z,97013.92
2019-05-29T12:15:17.584Z,97009.89
2019-05-29T12:17:48.598Z,97010.41
2019-05-29T12:20:28.979Z,97006.00
2019-05-29T12:23:13.386Z,97006.37
2019-05-29T12:25:26.163Z,97009.66
2019-05-29T12:27:57.793Z,97013.05
2019-05-29T12:30:31.456Z,97013.51
2019-05-29T12:33:03.276Z,97015.53
2019-05-29T12:35:34.376Z,97015.28
2019-05-29T12:38:05.634Z,97013.67
2019-05-29T12:40:36.816Z,97013.53
2019-05-29T12:43:25.587Z,97008.58
2019-05-29T12:45:40.699Z,97005.64
2019-05-29T12:48:14.557Z,97008.58
2019-05-29T12:50:44.566Z,97004.78
2019-05-29T12:53:29.514Z,97002.77
2019-05-29T12:55:48.291Z,97005.70
2019-05-29T12:58:20.544Z,97009.58
2019-05-29T13:00:51.967Z,97005.55
2019-05-29T13:03:22.989Z,97019.75
2019-05-29T13:05:54.181Z,97012.08
2019-05-29T13:08:25.381Z,97021.84
2019-05-29T13:10:56.425Z,97023.21
2019-05-29T13:13:27.459Z,97029.45
2019-05-29T13:16:00.849Z,97033.67
2019-05-29T13:18:32.075Z,97039.64
2019-05-29T13:21:03.220Z,97045.69
2019-05-29T13:23:44.608Z,97041.68
2019-05-29T13:26:07.071Z,97049.65
2019-05-29T13:28:38.117Z,97051.56
2019-05-29T13:31:09.224Z,97052.39
2019-05-29T13:33:40.585Z,97059.44
2019-05-29T13:36:11.650Z,97063.31
2019-05-29T13:38:42.657Z,97067.08
2019-05-29T13:41:13.737Z,97069.41
2019-05-29T13:43:44.773Z,97069.02
2019-05-29T13:46:15.818Z,97072.30
2019-05-29T13:48:46.832Z,97068.99
2019-05-29T13:51:17.995Z,97068.54
2019-05-29T13:54:02.473Z,97069.65
2019-05-29T13:56:24.341Z,97073.36
2019-05-29T13:58:54.628Z,97072.84
2019-05-29T14:01:25.875Z,97074.56
2019-05-29T14:03:58.067Z,97081.47
2019-05-29T14:06:29.369Z,97076.93
2019-05-29T14:09:00.808Z,97078.09
2019-05-29T14:11:33.713Z,97078.59
2019-05-29T14:14:08.009Z,97072.35
2019-05-29T14:16:38.719Z,97073.99
2019-05-29T14:19:09.825Z,97073.99
2019-05-29T14:21:40.919Z,97080.97
2019-05-29T14:24:26.133Z,97070.55
2019-05-29T14:26:44.965Z,97075.77
2019-05-29T14:29:16.070Z,97070.38
2019-05-29T14:31:47.070Z,97071.54
2019-05-29T14:34:18.205Z,97070.36
2019-05-29T14:36:50.453Z,97076.01
2019-05-29T14:39:21.814Z,97070.54
2019-05-29T14:41:52.967Z,97077.28
2019-05-29T14:44:23.986Z,97075.57
2019-05-29T14:46:55.211Z,97071.88
2019-05-29T14:49:27.112Z,97072.95
2019-05-29T14:51:58.164Z,97082.91
2019-05-29T14:54:41.086Z,97078.36
2019-05-29T14:57:09.174Z,97074.75
2019-05-29T14:59:34.865Z,97071.16
2019-05-29T15:02:15.237Z,97074.33
2019-05-29T15:04:38.820Z,97077.97
2019-05-29T15:07:09.947Z,97077.56
2019-05-29T15:09:41.035Z,97084.03
2019-05-29T15:12:12.166Z,97092.00
2019-05-29T15:14:43.344Z,97094.66
2019-05-29T15:17:15.462Z,97092.22
2019-05-29T15:19:46.594Z,97092.70
2019-05-29T15:22:17.616Z,97094.44
2019-05-29T15:25:04.459Z,97098.39
2019-05-29T15:27:23.582Z,97105.14
2019-05-29T15:29:54.727Z,97101.92
2019-05-29T15:32:25.735Z,97101.98
2019-05-29T15:34:56.826Z,97103.92
2019-05-29T15:37:27.826Z,97099.55
2019-05-29T15:40:00.435Z,97105.42
2019-05-29T15:42:31.533Z,97102.09
2019-05-29T15:45:02.591Z,97103.55
2019-05-29T15:47:33.584Z,97106.52
2019-05-29T15:50:06.652Z,97103.70
2019-05-29T15:52:37.833Z,97106.24
2019-05-29T15:55:21.415Z,97107.53
2019-05-29T15:57:41.954Z,97108.78
2019-05-29T16:00:15.668Z,97111.05
2019-05-29T16:02:49.034Z,97108.61
2019-05-29T16:05:21.346Z,97112.05
2019-05-29T16:07:52.409Z,97109.23
2019-05-29T16:10:23.674Z,97107.52
2019-05-29T16:12:54.815Z,97104.15
2019-05-29T16:15:25.979Z,97103.75
2019-05-29T16:17:56.991Z,97105.79
2019-05-29T16:20:28.197Z,97103.13
2019-05-29T16:22:59.306Z,97110.25
2019-05-29T16:25:40.027Z,97111.80
2019-05-29T16:28:03.359Z,97115.02
2019-05-29T16:30:34.561Z,97107.93
2019-05-29T16:33:05.771Z,97113.13
2019-05-29T16:35:37.659Z,97118.78
2019-05-29T16:38:08.755Z,97122.31
2019-05-29T16:40:39.894Z,97122.06
2019-05-29T16:43:12.316Z,97126.04
2019-05-29T16:45:43.334Z,97133.33
2019-05-29T16:48:14.634Z,97136.21
2019-05-29T16:50:45.924Z,97138.47
2019-05-29T16:53:17.065Z,97140.59
2019-05-29T16:55:53.677Z,97149.15
2019-05-29T16:58:21.299Z,97147.14
2019-05-29T17:00:52.472Z,97147.05
2019-05-29T17:03:23.913Z,97146.44
2019-05-29T17:05:54.974Z,97151.92
2019-05-29T17:08:26.020Z,97145.50
2019-05-29T17:10:57.100Z,97146.94
2019-05-29T17:13:28.101Z,97147.77
2019-05-29T17:15:59.197Z,97148.22
2019-05-29T17:18:30.270Z,97143.67
2019-05-29T17:21:01.355Z,97142.91
2019-05-29T17:23:32.360Z,97144.38
2019-05-29T17:26:10.561Z,97141.86
2019-05-29T17:28:36.078Z,97143.92
2019-05-29T17:31:07.079Z,97143.67
2019-05-29T17:33:38.154Z,97142.84
2019-05-29T17:36:09.326Z,97142.91
2019-05-29T17:38:40.530Z,97145.33
2019-05-29T17:41:11.808Z,97146.72
2019-05-29T17:43:42.845Z,97151.97
2019-05-29T17:46:13.833Z,97152.68
2019-05-29T17:48:44.847Z,97152.96
2019-05-29T17:51:17.544Z,97153.19
2019-05-29T17:53:49.666Z,97150.59
2019-05-29T17:56:31.741Z,97162.09
2019-05-29T17:58:54.207Z,97161.33
2019-05-29T18:01:29.859Z,97160.77
2019-05-29T18:03:59.253Z,97167.85
2019-05-29T18:06:30.408Z,97169.01
2019-05-29T18:09:01.552Z,97174.27
2019-05-29T18:11:34.693Z,97173.76
2019-05-29T18:14:07.691Z,97173.39
2019-05-29T18:16:38.846Z,97176.15
2019-05-29T18:19:10.084Z,97173.44
2019-05-29T18:21:41.105Z,97179.20
2019-05-29T18:24:12.390Z,97184.45
2019-05-29T18:26:47.314Z,97187.04
2019-05-29T18:29:16.231Z,97192.57
2019-05-29T18:31:47.250Z,97193.02
2019-05-29T18:34:18.767Z,97196.37
2019-05-29T18:36:49.918Z,97198.37
2019-05-29T18:39:22.176Z,97196.59
2019-05-29T18:41:53.210Z,97197.64
2019-05-29T18:44:24.844Z,97196.19
2019-05-29T18:46:56.385Z,97203.20
2019-05-29T18:49:28.483Z,97203.14
2019-05-29T18:52:00.674Z,97208.76
2019-05-29T18:54:33.142Z,97211.85
2019-05-29T18:57:15.059Z,97216.27
2019-05-29T18:59:37.145Z,97217.18
2019-05-29T19:02:08.890Z,97217.11
2019-05-29T19:04:39.971Z,97219.75
2019-05-29T19:07:11.053Z,97219.53
2019-05-29T19:09:42.115Z,97223.02
2019-05-29T19:12:13.164Z,97230.70
2019-05-29T19:14:44.182Z,97229.67
2019-05-29T19:17:15.241Z,97233.80
2019-05-29T19:19:46.247Z,97237.34
2019-05-29T19:22:17.289Z,97236.02
2019-05-29T19:24:48.359Z,97244.41
2019-05-29T19:27:32.101Z,97250.49
2019-05-29T19:29:52.077Z,97257.75
2019-05-29T19:32:23.395Z,97263.17
2019-05-29T19:34:54.450Z,97265.83
2019-05-29T19:37:27.830Z,97268.90
2019-05-29T19:39:59.302Z,97278.38
2019-05-29T19:42:30.448Z,97281.91
2019-05-29T19:45:01.771Z,97287.34
2019-05-29T19:47:32.848Z,97284.75
2019-05-29T19:50:04.527Z,97285.38
2019-05-29T19:52:36.175Z,97291.71
2019-05-29T19:55:07.692Z,97294.56
2019-05-29T19:57:54.905Z,97296.28
2019-05-29T20:00:13.240Z,97307.77
2019-05-29T20:02:44.420Z,97315.03
2019-05-29T20:05:16.379Z,97320.33
2019-05-29T20:07:47.506Z,97319.66
2019-05-29T20:10:18.674Z,97323.70
2019-05-29T20:12:49.714Z,97322.89
2019-05-29T20:15:22.024Z,97327.71
2019-05-29T20:17:53.153Z,97332.63
2019-05-29T20:20:24.290Z,97333.77
2019-05-29T20:22:55.381Z,97335.59
2019-05-29T20:25:26.484Z,97339.18
2019-05-29T20:28:05.801Z,97339.27
2019-05-29T20:30:30.473Z,97342.34
2019-05-29T20:33:01.684Z,97352.33
2019-05-29T20:35:32.833Z,97351.19
2019-05-29T20:38:06.516Z,97351.03
2019-05-29T20:40:37.305Z,97351.47
2019-05-29T20:43:08.564Z,97349.34
2019-05-29T20:45:39.857Z,97349.84
2019-05-29T20:48:11.253Z,97351.38
2019-05-29T20:50:43.329Z,97354.02
2019-05-29T20:53:15.404Z,97357.27
2019-05-29T20:55:46.436Z,97360.73
2019-05-29T20:58:24.488Z,97361.14
2019-05-29T21:00:50.666Z,97362.06
2019-05-29T21:03:22.117Z,97361.05
2019-05-29T21:05:53.168Z,97358.80
2019-05-29T21:08:24.226Z,97363.19
2019-05-29T21:10:55.325Z,97370.20
2019-05-29T21:13:26.374Z,97371.22
2019-05-29T21:15:57.428Z,97368.87
2019-05-29T21:18:28.459Z,97370.69
2019-05-29T21:20:59.579Z,97379.75
2019-05-29T21:23:30.627Z,97373.66
2019-05-29T21:26:01.686Z,97372.52
2019-05-29T21:28:41.775Z,97378.83
2019-05-29T21:31:05.642Z,97376.16
2019-05-29T21:33:38.738Z,97378.80
2019-05-29T21:36:11.651Z,97376.98
2019-05-29T21:38:42.765Z,97375.64
2019-05-29T21:41:13.895Z,97378.21
2019-05-29T21:43:44.993Z,97371.91
2019-05-29T21:46:16.025Z,97374.36
2019-05-29T21:48:47.504Z,97378.21
2019-05-29T21:51:19.680Z,97376.27
2019-05-29T21:53:52.013Z,97376.56
2019-05-29T21:56:23.079Z,97377.98
2019-05-29T21:59:03.494Z,97373.34
2019-05-29T22:01:27.568Z,97380.44
2019-05-29T22:03:58.750Z,97375.65
2019-05-29T22:06:29.892Z,97364.48
2019-05-29T22:09:01.017Z,97374.73
2019-05-29T22:11:33.826Z,97374.53
2019-05-29T22:14:05.122Z,97378.29
2019-05-29T22:16:36.216Z,97380.92
2019-05-29T22:19:07.361Z,97382.84
2019-05-29T22:21:38.374Z,97375.22
2019-05-29T22:24:09.443Z,97376.96
2019-05-29T22:26:40.566Z,97378.58
2019-05-29T22:29:17.952Z,97375.64
2019-05-29T22:31:44.413Z,97388.84
2019-05-29T22:34:15.442Z,97384.45
2019-05-29T22:36:46.443Z,97387.91
2019-05-29T22:39:17.525Z,97386.16
2019-05-29T22:41:48.570Z,97389.81
2019-05-29T22:44:19.582Z,97388.30
2019-05-29T22:46:51.640Z,97388.29
2019-05-29T22:49:22.666Z,97388.00
2019-05-29T22:51:53.754Z,97384.53
2019-05-29T22:54:24.787Z,97389.11
2019-05-29T22:56:55.910Z,97392.25
2019-05-29T22:59:31.940Z,97388.80
2019-05-29T23:02:00.368Z,97386.48
2019-05-29T23:04:31.515Z,97390.20
2019-05-29T23:07:02.661Z,97388.78
2019-05-29T23:09:33.748Z,97391.75
2019-05-29T23:12:04.955Z,97387.90
2019-05-29T23:14:36.243Z,97392.23
2019-05-29T23:17:07.323Z,97393.12
2019-05-29T23:19:38.829Z,97387.63
2019-05-29T23:22:09.855Z,97383.03
2019-05-29T23:24:40.861Z,97385.13
2019-05-29T23:27:11.889Z,97390.98
2019-05-29T23:29:48.822Z,97392.22
2019-05-29T23:32:15.937Z,97394.28
2019-05-29T23:34:47.022Z,97402.28
2019-05-29T23:37:18.154Z,97395.88
2019-05-29T23:39:49.249Z,97395.70
2019-05-29T23:42:22.583Z,97393.98
2019-05-29T23:44:54.162Z,97396.84
2019-05-29T23:47:26.506Z,97395.33
2019-05-29T23:49:57.590Z,97396.84
2019-05-29T23:52:28.694Z,97394.75
2019-05-29T23:54:59.929Z,97389.39
2019-05-29T23:57:31.013Z,97396.64
